sensor_id;sensor_type;location;lat;lon;timestamp;P1;durP1;ratioP1;P2;durP2;ratioP2
67930;SDS011;54726;52.000;5.954;2022-08-23T00:00:31;6.47;;;2.45;;
67930;SDS011;54726;52.000;5.954;2022-08-23T00:01:32;8.23;;;2.38;;
67930;SDS011;54726;52.000;5.954;2022-08-23T00:02:34;9.27;;;2.47;;
67930;SDS011;54726;52.000;5.954;2022-08-23T00:03:34;8.65;;;2.33;;
67930;SDS011;54726;52.000;5.954;2022-08-23T00:04:36;5.60;;;2.35;;
67930;SDS011;54726;52.000;5.954;2022-08-23T00:05:38;11.55;;;2.50;;
67930;SDS011;54726;52.000;5.954;2022-08-23T00:06:38;4.82;;;2.35;;
67930;SDS011;54726;52.000;5.954;2022-08-23T00:07:40;6.47;;;2.22;;
67930;SDS011;54726;52.000;5.954;2022-08-23T00:08:42;4.90;;;2.20;;
67930;SDS011;54726;52.000;5.954;2022-08-23T00:09:43;5.10;;;2.45;;
67930;SDS011;54726;52.000;5.954;2022-08-23T00:10:43;5.22;;;2.30;;
67930;SDS011;54726;52.000;5.954;2022-08-23T00:11:45;8.20;;;2.50;;
67930;SDS011;54726;52.000;5.954;2022-08-23T00:12:47;7.78;;;2.85;;
67930;SDS011;54726;52.000;5.954;2022-08-23T00:13:49;5.07;;;2.53;;
67930;SDS011;54726;52.000;5.954;2022-08-23T00:14:50;5.55;;;2.50;;
67930;SDS011;54726;52.000;5.954;2022-08-23T00:15:52;9.43;;;2.97;;
67930;SDS011;54726;52.000;5.954;2022-08-23T00:16:52;5.60;;;2.55;;
67930;SDS011;54726;52.000;5.954;2022-08-23T00:17:54;4.43;;;2.35;;
67930;SDS011;54726;52.000;5.954;2022-08-23T00:18:54;6.43;;;2.50;;
67930;SDS011;54726;52.000;5.954;2022-08-23T00:19:54;8.02;;;2.40;;
67930;SDS011;54726;52.000;5.954;2022-08-23T00:20:55;7.50;;;2.58;;
67930;SDS011;54726;52.000;5.954;2022-08-23T00:21:55;5.20;;;2.30;;
67930;SDS011;54726;52.000;5.954;2022-08-23T00:22:56;11.38;;;2.55;;
67930;SDS011;54726;52.000;5.954;2022-08-23T00:23:56;6.00;;;2.55;;
67930;SDS011;54726;52.000;5.954;2022-08-23T00:24:57;8.32;;;3.35;;
67930;SDS011;54726;52.000;5.954;2022-08-23T00:25:59;11.13;;;2.80;;
67930;SDS011;54726;52.000;5.954;2022-08-23T00:27:01;5.80;;;2.30;;
67930;SDS011;54726;52.000;5.954;2022-08-23T00:28:04;6.55;;;2.70;;
67930;SDS011;54726;52.000;5.954;2022-08-23T00:29:06;6.07;;;2.38;;
67930;SDS011;54726;52.000;5.954;2022-08-23T00:30:07;8.02;;;2.58;;
67930;SDS011;54726;52.000;5.954;2022-08-23T00:31:09;5.40;;;2.75;;
67930;SDS011;54726;52.000;5.954;2022-08-23T00:32:11;8.90;;;2.70;;
67930;SDS011;54726;52.000;5.954;2022-08-23T00:33:13;7.00;;;2.83;;
67930;SDS011;54726;52.000;5.954;2022-08-23T00:34:14;8.85;;;2.83;;
67930;SDS011;54726;52.000;5.954;2022-08-23T00:35:14;9.13;;;2.95;;
67930;SDS011;54726;52.000;5.954;2022-08-23T00:36:15;9.07;;;2.40;;
67930;SDS011;54726;52.000;5.954;2022-08-23T00:37:16;6.57;;;2.53;;
67930;SDS011;54726;52.000;5.954;2022-08-23T00:38:17;9.40;;;2.50;;
67930;SDS011;54726;52.000;5.954;2022-08-23T00:39:18;7.90;;;2.80;;
67930;SDS011;54726;52.000;5.954;2022-08-23T00:40:19;9.30;;;2.63;;
67930;SDS011;54726;52.000;5.954;2022-08-23T00:41:20;10.00;;;2.88;;
67930;SDS011;54726;52.000;5.954;2022-08-23T00:42:25;11.77;;;2.80;;
67930;SDS011;54726;52.000;5.954;2022-08-23T00:43:30;7.30;;;3.10;;
67930;SDS011;54726;52.000;5.954;2022-08-23T00:44:36;7.70;;;2.83;;
67930;SDS011;54726;52.000;5.954;2022-08-23T00:45:38;6.90;;;2.35;;
67930;SDS011;54726;52.000;5.954;2022-08-23T00:46:44;8.60;;;2.90;;
67930;SDS011;54726;52.000;5.954;2022-08-23T00:47:47;3.88;;;2.45;;
67930;SDS011;54726;52.000;5.954;2022-08-23T00:48:47;5.88;;;3.20;;
67930;SDS011;54726;52.000;5.954;2022-08-23T00:49:51;4.10;;;2.30;;
67930;SDS011;54726;52.000;5.954;2022-08-23T00:51:06;8.45;;;2.70;;
67930;SDS011;54726;52.000;5.954;2022-08-23T00:52:13;6.82;;;2.72;;
67930;SDS011;54726;52.000;5.954;2022-08-23T00:53:21;5.15;;;2.40;;
67930;SDS011;54726;52.000;5.954;2022-08-23T00:54:25;4.97;;;2.45;;
67930;SDS011;54726;52.000;5.954;2022-08-23T00:55:27;7.38;;;3.10;;
67930;SDS011;54726;52.000;5.954;2022-08-23T00:56:30;8.07;;;2.72;;
67930;SDS011;54726;52.000;5.954;2022-08-23T00:57:33;5.20;;;2.65;;
67930;SDS011;54726;52.000;5.954;2022-08-23T00:58:34;6.50;;;2.90;;
67930;SDS011;54726;52.000;5.954;2022-08-23T00:59:36;5.63;;;2.55;;
67930;SDS011;54726;52.000;5.954;2022-08-23T01:00:36;6.53;;;2.95;;
67930;SDS011;54726;52.000;5.954;2022-08-23T01:01:37;7.05;;;2.47;;
67930;SDS011;54726;52.000;5.954;2022-08-23T01:02:37;6.15;;;2.80;;
67930;SDS011;54726;52.000;5.954;2022-08-23T01:03:40;8.20;;;3.08;;
67930;SDS011;54726;52.000;5.954;2022-08-23T01:04:44;7.70;;;2.78;;
67930;SDS011;54726;52.000;5.954;2022-08-23T01:05:50;7.13;;;3.17;;
67930;SDS011;54726;52.000;5.954;2022-08-23T01:06:59;7.75;;;2.60;;
67930;SDS011;54726;52.000;5.954;2022-08-23T01:08:02;5.75;;;2.60;;
67930;SDS011;54726;52.000;5.954;2022-08-23T01:09:04;7.95;;;2.55;;
67930;SDS011;54726;52.000;5.954;2022-08-23T01:10:09;6.03;;;2.55;;
67930;SDS011;54726;52.000;5.954;2022-08-23T01:11:16;7.03;;;2.67;;
67930;SDS011;54726;52.000;5.954;2022-08-23T01:12:22;6.03;;;2.83;;
67930;SDS011;54726;52.000;5.954;2022-08-23T01:13:37;5.45;;;2.60;;
67930;SDS011;54726;52.000;5.954;2022-08-23T01:14:43;5.05;;;2.78;;
67930;SDS011;54726;52.000;5.954;2022-08-23T01:15:49;9.00;;;3.00;;
67930;SDS011;54726;52.000;5.954;2022-08-23T01:16:55;6.20;;;2.90;;
67930;SDS011;54726;52.000;5.954;2022-08-23T01:18:01;6.65;;;3.28;;
67930;SDS011;54726;52.000;5.954;2022-08-23T01:19:04;7.30;;;3.05;;
67930;SDS011;54726;52.000;5.954;2022-08-23T01:20:12;6.60;;;2.75;;
67930;SDS011;54726;52.000;5.954;2022-08-23T01:21:16;5.85;;;2.70;;
67930;SDS011;54726;52.000;5.954;2022-08-23T01:22:23;5.78;;;2.42;;
67930;SDS011;54726;52.000;5.954;2022-08-23T01:23:30;6.85;;;2.75;;
67930;SDS011;54726;52.000;5.954;2022-08-23T01:24:36;6.22;;;3.08;;
67930;SDS011;54726;52.000;5.954;2022-08-23T01:25:37;5.20;;;2.60;;
67930;SDS011;54726;52.000;5.954;2022-08-23T01:26:38;7.13;;;2.63;;
67930;SDS011;54726;52.000;5.954;2022-08-23T01:27:38;6.05;;;2.88;;
67930;SDS011;54726;52.000;5.954;2022-08-23T01:28:39;13.70;;;3.55;;
67930;SDS011;54726;52.000;5.954;2022-08-23T01:29:40;9.05;;;3.20;;
67930;SDS011;54726;52.000;5.954;2022-08-23T01:30:41;5.00;;;3.00;;
67930;SDS011;54726;52.000;5.954;2022-08-23T01:31:42;6.03;;;2.72;;
67930;SDS011;54726;52.000;5.954;2022-08-23T01:32:44;9.07;;;3.28;;
67930;SDS011;54726;52.000;5.954;2022-08-23T01:33:47;6.63;;;2.95;;
67930;SDS011;54726;52.000;5.954;2022-08-23T01:34:53;6.45;;;3.30;;
67930;SDS011;54726;52.000;5.954;2022-08-23T01:35:54;6.97;;;3.17;;
67930;SDS011;54726;52.000;5.954;2022-08-23T01:36:56;6.43;;;3.03;;
67930;SDS011;54726;52.000;5.954;2022-08-23T01:37:58;5.70;;;2.80;;
67930;SDS011;54726;52.000;5.954;2022-08-23T01:39:00;7.13;;;2.95;;
67930;SDS011;54726;52.000;5.954;2022-08-23T01:40:01;5.47;;;2.92;;
67930;SDS011;54726;52.000;5.954;2022-08-23T01:41:02;7.85;;;3.00;;
67930;SDS011;54726;52.000;5.954;2022-08-23T01:42:03;6.10;;;3.00;;
67930;SDS011;54726;52.000;5.954;2022-08-23T01:43:05;6.10;;;3.08;;
67930;SDS011;54726;52.000;5.954;2022-08-23T01:44:06;7.05;;;3.08;;
67930;SDS011;54726;52.000;5.954;2022-08-23T01:45:07;7.18;;;3.10;;
67930;SDS011;54726;52.000;5.954;2022-08-23T01:46:10;7.80;;;2.88;;
67930;SDS011;54726;52.000;5.954;2022-08-23T01:47:12;6.70;;;2.78;;
67930;SDS011;54726;52.000;5.954;2022-08-23T01:48:13;7.88;;;3.47;;
67930;SDS011;54726;52.000;5.954;2022-08-23T01:49:15;4.75;;;2.90;;
67930;SDS011;54726;52.000;5.954;2022-08-23T01:50:16;6.15;;;3.03;;
67930;SDS011;54726;52.000;5.954;2022-08-23T01:51:17;5.35;;;3.20;;
67930;SDS011;54726;52.000;5.954;2022-08-23T01:52:18;6.15;;;2.97;;
67930;SDS011;54726;52.000;5.954;2022-08-23T01:53:19;6.57;;;3.28;;
67930;SDS011;54726;52.000;5.954;2022-08-23T01:54:21;5.05;;;2.95;;
67930;SDS011;54726;52.000;5.954;2022-08-23T01:55:21;7.32;;;3.03;;
67930;SDS011;54726;52.000;5.954;2022-08-23T01:56:22;7.20;;;3.13;;
67930;SDS011;54726;52.000;5.954;2022-08-23T01:57:23;7.25;;;2.85;;
67930;SDS011;54726;52.000;5.954;2022-08-23T01:58:24;7.85;;;3.10;;
67930;SDS011;54726;52.000;5.954;2022-08-23T01:59:24;11.65;;;3.05;;
67930;SDS011;54726;52.000;5.954;2022-08-23T02:00:26;5.82;;;3.40;;
67930;SDS011;54726;52.000;5.954;2022-08-23T02:01:29;7.82;;;3.53;;
67930;SDS011;54726;52.000;5.954;2022-08-23T02:02:29;8.13;;;3.28;;
67930;SDS011;54726;52.000;5.954;2022-08-23T02:03:30;10.98;;;3.30;;
67930;SDS011;54726;52.000;5.954;2022-08-23T02:04:31;5.30;;;3.13;;
67930;SDS011;54726;52.000;5.954;2022-08-23T02:05:31;13.68;;;3.28;;
67930;SDS011;54726;52.000;5.954;2022-08-23T02:06:32;7.22;;;3.35;;
67930;SDS011;54726;52.000;5.954;2022-08-23T02:07:32;9.30;;;3.70;;
67930;SDS011;54726;52.000;5.954;2022-08-23T02:08:33;5.32;;;3.25;;
67930;SDS011;54726;52.000;5.954;2022-08-23T02:09:35;10.25;;;3.53;;
67930;SDS011;54726;52.000;5.954;2022-08-23T02:10:35;9.15;;;3.38;;
67930;SDS011;54726;52.000;5.954;2022-08-23T02:11:38;6.43;;;3.05;;
67930;SDS011;54726;52.000;5.954;2022-08-23T02:12:39;8.07;;;3.58;;
67930;SDS011;54726;52.000;5.954;2022-08-23T02:13:40;7.32;;;3.50;;
67930;SDS011;54726;52.000;5.954;2022-08-23T02:14:41;5.55;;;3.15;;
67930;SDS011;54726;52.000;5.954;2022-08-23T02:15:41;9.02;;;3.55;;
67930;SDS011;54726;52.000;5.954;2022-08-23T02:16:43;7.30;;;3.10;;
67930;SDS011;54726;52.000;5.954;2022-08-23T02:17:45;7.40;;;3.55;;
67930;SDS011;54726;52.000;5.954;2022-08-23T02:18:46;9.13;;;3.15;;
67930;SDS011;54726;52.000;5.954;2022-08-23T02:19:46;5.57;;;3.22;;
67930;SDS011;54726;52.000;5.954;2022-08-23T02:20:47;6.90;;;3.50;;
67930;SDS011;54726;52.000;5.954;2022-08-23T02:21:50;7.00;;;2.95;;
67930;SDS011;54726;52.000;5.954;2022-08-23T02:22:50;7.10;;;3.58;;
67930;SDS011;54726;52.000;5.954;2022-08-23T02:23:51;12.90;;;3.60;;
67930;SDS011;54726;52.000;5.954;2022-08-23T02:24:52;8.93;;;3.45;;
67930;SDS011;54726;52.000;5.954;2022-08-23T02:25:53;9.88;;;4.00;;
67930;SDS011;54726;52.000;5.954;2022-08-23T02:26:54;8.45;;;3.53;;
67930;SDS011;54726;52.000;5.954;2022-08-23T02:27:56;6.22;;;3.20;;
67930;SDS011;54726;52.000;5.954;2022-08-23T02:28:57;10.27;;;3.70;;
67930;SDS011;54726;52.000;5.954;2022-08-23T02:29:57;6.88;;;3.17;;
67930;SDS011;54726;52.000;5.954;2022-08-23T02:30:58;5.32;;;3.65;;
67930;SDS011;54726;52.000;5.954;2022-08-23T02:31:58;10.30;;;4.47;;
67930;SDS011;54726;52.000;5.954;2022-08-23T02:32:59;8.00;;;3.28;;
67930;SDS011;54726;52.000;5.954;2022-08-23T02:33:59;8.20;;;3.60;;
67930;SDS011;54726;52.000;5.954;2022-08-23T02:35:00;8.23;;;3.38;;
67930;SDS011;54726;52.000;5.954;2022-08-23T02:36:00;7.43;;;3.78;;
67930;SDS011;54726;52.000;5.954;2022-08-23T02:37:01;9.50;;;3.78;;
67930;SDS011;54726;52.000;5.954;2022-08-23T02:38:01;7.15;;;3.05;;
67930;SDS011;54726;52.000;5.954;2022-08-23T02:39:03;10.38;;;3.95;;
67930;SDS011;54726;52.000;5.954;2022-08-23T02:40:08;7.40;;;3.42;;
67930;SDS011;54726;52.000;5.954;2022-08-23T02:41:09;6.03;;;3.88;;
67930;SDS011;54726;52.000;5.954;2022-08-23T02:42:09;9.25;;;3.80;;
67930;SDS011;54726;52.000;5.954;2022-08-23T02:43:10;5.80;;;3.80;;
67930;SDS011;54726;52.000;5.954;2022-08-23T02:44:11;9.15;;;3.95;;
67930;SDS011;54726;52.000;5.954;2022-08-23T02:45:11;9.57;;;3.95;;
67930;SDS011;54726;52.000;5.954;2022-08-23T02:46:12;5.75;;;3.67;;
67930;SDS011;54726;52.000;5.954;2022-08-23T02:47:12;6.82;;;3.58;;
67930;SDS011;54726;52.000;5.954;2022-08-23T02:48:13;12.48;;;4.70;;
67930;SDS011;54726;52.000;5.954;2022-08-23T02:49:14;7.25;;;3.97;;
67930;SDS011;54726;52.000;5.954;2022-08-23T02:50:14;11.20;;;4.50;;
67930;SDS011;54726;52.000;5.954;2022-08-23T02:51:15;10.38;;;4.07;;
67930;SDS011;54726;52.000;5.954;2022-08-23T02:52:15;10.88;;;4.30;;
67930;SDS011;54726;52.000;5.954;2022-08-23T02:53:16;9.32;;;4.32;;
67930;SDS011;54726;52.000;5.954;2022-08-23T02:54:16;10.18;;;4.63;;
67930;SDS011;54726;52.000;5.954;2022-08-23T02:55:18;9.68;;;4.20;;
67930;SDS011;54726;52.000;5.954;2022-08-23T02:56:19;10.60;;;3.83;;
67930;SDS011;54726;52.000;5.954;2022-08-23T02:57:19;8.88;;;3.80;;
67930;SDS011;54726;52.000;5.954;2022-08-23T02:58:20;9.00;;;4.18;;
67930;SDS011;54726;52.000;5.954;2022-08-23T02:59:20;7.00;;;4.30;;
67930;SDS011;54726;52.000;5.954;2022-08-23T03:00:21;10.30;;;4.15;;
67930;SDS011;54726;52.000;5.954;2022-08-23T03:01:23;8.75;;;4.25;;
67930;SDS011;54726;52.000;5.954;2022-08-23T03:02:25;9.88;;;4.32;;
67930;SDS011;54726;52.000;5.954;2022-08-23T03:03:25;9.25;;;3.67;;
67930;SDS011;54726;52.000;5.954;2022-08-23T03:04:26;10.68;;;4.13;;
67930;SDS011;54726;52.000;5.954;2022-08-23T03:05:26;8.13;;;3.88;;
67930;SDS011;54726;52.000;5.954;2022-08-23T03:06:27;10.30;;;4.18;;
67930;SDS011;54726;52.000;5.954;2022-08-23T03:07:27;8.35;;;4.30;;
67930;SDS011;54726;52.000;5.954;2022-08-23T03:08:28;11.57;;;3.92;;
67930;SDS011;54726;52.000;5.954;2022-08-23T03:09:28;10.50;;;3.92;;
67930;SDS011;54726;52.000;5.954;2022-08-23T03:10:30;8.43;;;4.10;;
67930;SDS011;54726;52.000;5.954;2022-08-23T03:11:30;7.75;;;4.10;;
67930;SDS011;54726;52.000;5.954;2022-08-23T03:12:31;8.55;;;4.03;;
67930;SDS011;54726;52.000;5.954;2022-08-23T03:13:32;6.72;;;3.90;;
67930;SDS011;54726;52.000;5.954;2022-08-23T03:14:32;7.47;;;4.00;;
67930;SDS011;54726;52.000;5.954;2022-08-23T03:15:32;8.23;;;3.78;;
67930;SDS011;54726;52.000;5.954;2022-08-23T03:16:33;9.82;;;4.22;;
67930;SDS011;54726;52.000;5.954;2022-08-23T03:17:33;10.65;;;3.60;;
67930;SDS011;54726;52.000;5.954;2022-08-23T03:18:34;8.20;;;3.78;;
67930;SDS011;54726;52.000;5.954;2022-08-23T03:19:35;6.07;;;4.13;;
67930;SDS011;54726;52.000;5.954;2022-08-23T03:20:36;6.82;;;3.80;;
67930;SDS011;54726;52.000;5.954;2022-08-23T03:21:36;11.13;;;3.90;;
67930;SDS011;54726;52.000;5.954;2022-08-23T03:22:37;5.15;;;3.78;;
67930;SDS011;54726;52.000;5.954;2022-08-23T03:23:38;9.85;;;4.10;;
67930;SDS011;54726;52.000;5.954;2022-08-23T03:24:39;6.45;;;3.67;;
67930;SDS011;54726;52.000;5.954;2022-08-23T03:25:41;6.43;;;3.78;;
67930;SDS011;54726;52.000;5.954;2022-08-23T03:26:42;6.10;;;3.70;;
67930;SDS011;54726;52.000;5.954;2022-08-23T03:27:43;10.32;;;4.50;;
67930;SDS011;54726;52.000;5.954;2022-08-23T03:28:44;9.68;;;4.40;;
67930;SDS011;54726;52.000;5.954;2022-08-23T03:29:45;8.27;;;4.03;;
67930;SDS011;54726;52.000;5.954;2022-08-23T03:30:46;7.72;;;3.97;;
67930;SDS011;54726;52.000;5.954;2022-08-23T03:31:46;8.30;;;4.03;;
67930;SDS011;54726;52.000;5.954;2022-08-23T03:32:46;6.82;;;3.70;;
67930;SDS011;54726;52.000;5.954;2022-08-23T03:33:47;10.48;;;3.90;;
67930;SDS011;54726;52.000;5.954;2022-08-23T03:34:47;7.20;;;3.85;;
67930;SDS011;54726;52.000;5.954;2022-08-23T03:35:48;5.82;;;3.45;;
67930;SDS011;54726;52.000;5.954;2022-08-23T03:36:49;9.70;;;4.35;;
67930;SDS011;54726;52.000;5.954;2022-08-23T03:37:49;9.85;;;4.00;;
67930;SDS011;54726;52.000;5.954;2022-08-23T03:38:50;6.85;;;3.83;;
67930;SDS011;54726;52.000;5.954;2022-08-23T03:39:50;6.78;;;3.70;;
67930;SDS011;54726;52.000;5.954;2022-08-23T03:40:52;9.35;;;4.15;;
67930;SDS011;54726;52.000;5.954;2022-08-23T03:41:52;6.32;;;3.65;;
67930;SDS011;54726;52.000;5.954;2022-08-23T03:42:53;8.50;;;3.50;;
67930;SDS011;54726;52.000;5.954;2022-08-23T03:43:53;8.52;;;4.07;;
67930;SDS011;54726;52.000;5.954;2022-08-23T03:44:54;9.20;;;3.95;;
67930;SDS011;54726;52.000;5.954;2022-08-23T03:45:54;8.50;;;3.47;;
67930;SDS011;54726;52.000;5.954;2022-08-23T03:46:55;6.40;;;3.70;;
67930;SDS011;54726;52.000;5.954;2022-08-23T03:47:55;7.72;;;3.65;;
67930;SDS011;54726;52.000;5.954;2022-08-23T03:48:56;7.32;;;3.67;;
67930;SDS011;54726;52.000;5.954;2022-08-23T03:49:58;7.47;;;3.78;;
67930;SDS011;54726;52.000;5.954;2022-08-23T03:50:58;6.40;;;3.50;;
67930;SDS011;54726;52.000;5.954;2022-08-23T03:51:59;8.05;;;3.67;;
67930;SDS011;54726;52.000;5.954;2022-08-23T03:52:59;7.95;;;3.47;;
67930;SDS011;54726;52.000;5.954;2022-08-23T03:54:00;8.20;;;3.60;;
67930;SDS011;54726;52.000;5.954;2022-08-23T03:55:01;7.40;;;3.65;;
67930;SDS011;54726;52.000;5.954;2022-08-23T03:56:03;10.20;;;3.70;;
67930;SDS011;54726;52.000;5.954;2022-08-23T03:57:05;7.47;;;4.05;;
67930;SDS011;54726;52.000;5.954;2022-08-23T03:58:06;10.20;;;4.05;;
67930;SDS011;54726;52.000;5.954;2022-08-23T03:59:07;7.43;;;3.80;;
67930;SDS011;54726;52.000;5.954;2022-08-23T04:00:11;6.43;;;3.83;;
67930;SDS011;54726;52.000;5.954;2022-08-23T04:01:13;7.93;;;3.92;;
67930;SDS011;54726;52.000;5.954;2022-08-23T04:02:13;9.30;;;4.05;;
67930;SDS011;54726;52.000;5.954;2022-08-23T04:03:14;7.93;;;3.60;;
67930;SDS011;54726;52.000;5.954;2022-08-23T04:04:14;6.15;;;3.72;;
67930;SDS011;54726;52.000;5.954;2022-08-23T04:05:15;9.20;;;3.65;;
67930;SDS011;54726;52.000;5.954;2022-08-23T04:06:16;10.02;;;3.60;;
67930;SDS011;54726;52.000;5.954;2022-08-23T04:07:17;6.93;;;3.97;;
67930;SDS011;54726;52.000;5.954;2022-08-23T04:08:19;11.07;;;3.97;;
67930;SDS011;54726;52.000;5.954;2022-08-23T04:09:19;5.60;;;3.67;;
67930;SDS011;54726;52.000;5.954;2022-08-23T04:10:20;6.00;;;3.47;;
67930;SDS011;54726;52.000;5.954;2022-08-23T04:11:22;5.30;;;3.83;;
67930;SDS011;54726;52.000;5.954;2022-08-23T04:12:23;8.73;;;3.65;;
67930;SDS011;54726;52.000;5.954;2022-08-23T04:13:23;10.13;;;3.80;;
67930;SDS011;54726;52.000;5.954;2022-08-23T04:14:24;12.63;;;4.35;;
67930;SDS011;54726;52.000;5.954;2022-08-23T04:15:24;8.18;;;3.42;;
67930;SDS011;54726;52.000;5.954;2022-08-23T04:16:25;10.05;;;3.90;;
67930;SDS011;54726;52.000;5.954;2022-08-23T04:17:25;7.30;;;3.63;;
67930;SDS011;54726;52.000;5.954;2022-08-23T04:18:25;9.85;;;3.60;;
67930;SDS011;54726;52.000;5.954;2022-08-23T04:19:26;8.98;;;3.88;;
67930;SDS011;54726;52.000;5.954;2022-08-23T04:20:26;5.70;;;3.53;;
67930;SDS011;54726;52.000;5.954;2022-08-23T04:21:27;7.90;;;4.10;;
67930;SDS011;54726;52.000;5.954;2022-08-23T04:22:27;7.30;;;3.95;;
67930;SDS011;54726;52.000;5.954;2022-08-23T04:23:28;8.13;;;3.40;;
67930;SDS011;54726;52.000;5.954;2022-08-23T04:24:28;9.15;;;3.70;;
67930;SDS011;54726;52.000;5.954;2022-08-23T04:25:29;6.40;;;3.83;;
67930;SDS011;54726;52.000;5.954;2022-08-23T04:26:31;9.45;;;3.95;;
67930;SDS011;54726;52.000;5.954;2022-08-23T04:27:31;8.20;;;4.10;;
67930;SDS011;54726;52.000;5.954;2022-08-23T04:28:32;6.85;;;3.58;;
67930;SDS011;54726;52.000;5.954;2022-08-23T04:29:33;11.43;;;4.82;;
67930;SDS011;54726;52.000;5.954;2022-08-23T04:30:33;5.45;;;3.65;;
67930;SDS011;54726;52.000;5.954;2022-08-23T04:31:34;10.45;;;3.60;;
67930;SDS011;54726;52.000;5.954;2022-08-23T04:32:34;10.52;;;4.63;;
67930;SDS011;54726;52.000;5.954;2022-08-23T04:33:35;5.78;;;3.83;;
67930;SDS011;54726;52.000;5.954;2022-08-23T04:34:35;11.43;;;4.78;;
67930;SDS011;54726;52.000;5.954;2022-08-23T04:35:37;7.57;;;4.03;;
67930;SDS011;54726;52.000;5.954;2022-08-23T04:36:38;6.47;;;3.78;;
67930;SDS011;54726;52.000;5.954;2022-08-23T04:37:40;8.80;;;4.18;;
67930;SDS011;54726;52.000;5.954;2022-08-23T04:38:41;9.73;;;4.32;;
67930;SDS011;54726;52.000;5.954;2022-08-23T04:39:41;7.28;;;4.18;;
67930;SDS011;54726;52.000;5.954;2022-08-23T04:40:42;9.40;;;4.60;;
67930;SDS011;54726;52.000;5.954;2022-08-23T04:41:43;8.23;;;3.97;;
67930;SDS011;54726;52.000;5.954;2022-08-23T04:42:44;8.35;;;4.10;;
67930;SDS011;54726;52.000;5.954;2022-08-23T04:43:44;9.48;;;4.32;;
67930;SDS011;54726;52.000;5.954;2022-08-23T04:44:45;11.50;;;4.10;;
67930;SDS011;54726;52.000;5.954;2022-08-23T04:45:45;6.22;;;3.90;;
67930;SDS011;54726;52.000;5.954;2022-08-23T04:46:46;7.13;;;4.40;;
67930;SDS011;54726;52.000;5.954;2022-08-23T04:47:47;7.55;;;4.05;;
67930;SDS011;54726;52.000;5.954;2022-08-23T04:48:47;9.18;;;4.95;;
67930;SDS011;54726;52.000;5.954;2022-08-23T04:49:48;7.68;;;4.15;;
67930;SDS011;54726;52.000;5.954;2022-08-23T04:50:48;9.52;;;4.75;;
67930;SDS011;54726;52.000;5.954;2022-08-23T04:51:49;8.23;;;4.15;;
67930;SDS011;54726;52.000;5.954;2022-08-23T04:52:49;6.20;;;3.83;;
67930;SDS011;54726;52.000;5.954;2022-08-23T04:53:49;8.85;;;4.25;;
67930;SDS011;54726;52.000;5.954;2022-08-23T04:54:50;7.05;;;4.40;;
67930;SDS011;54726;52.000;5.954;2022-08-23T04:55:50;9.80;;;4.35;;
67930;SDS011;54726;52.000;5.954;2022-08-23T04:56:52;9.43;;;4.53;;
67930;SDS011;54726;52.000;5.954;2022-08-23T04:57:52;11.05;;;4.40;;
67930;SDS011;54726;52.000;5.954;2022-08-23T04:58:53;8.60;;;4.57;;
67930;SDS011;54726;52.000;5.954;2022-08-23T04:59:54;11.93;;;4.65;;
67930;SDS011;54726;52.000;5.954;2022-08-23T05:00:56;6.25;;;4.28;;
67930;SDS011;54726;52.000;5.954;2022-08-23T05:01:57;9.10;;;4.38;;
67930;SDS011;54726;52.000;5.954;2022-08-23T05:02:57;13.23;;;4.60;;
67930;SDS011;54726;52.000;5.954;2022-08-23T05:03:58;8.05;;;5.10;;
67930;SDS011;54726;52.000;5.954;2022-08-23T05:04:59;7.70;;;5.25;;
67930;SDS011;54726;52.000;5.954;2022-08-23T05:05:59;7.60;;;4.72;;
67930;SDS011;54726;52.000;5.954;2022-08-23T05:07:00;14.10;;;5.63;;
67930;SDS011;54726;52.000;5.954;2022-08-23T05:08:00;10.90;;;5.50;;
67930;SDS011;54726;52.000;5.954;2022-08-23T05:09:01;7.00;;;4.85;;
67930;SDS011;54726;52.000;5.954;2022-08-23T05:10:03;7.32;;;5.07;;
67930;SDS011;54726;52.000;5.954;2022-08-23T05:11:05;8.63;;;5.07;;
67930;SDS011;54726;52.000;5.954;2022-08-23T05:12:08;9.43;;;4.75;;
67930;SDS011;54726;52.000;5.954;2022-08-23T05:13:08;10.02;;;4.45;;
67930;SDS011;54726;52.000;5.954;2022-08-23T05:14:09;13.07;;;5.20;;
67930;SDS011;54726;52.000;5.954;2022-08-23T05:15:10;10.65;;;5.10;;
67930;SDS011;54726;52.000;5.954;2022-08-23T05:16:11;9.50;;;4.85;;
67930;SDS011;54726;52.000;5.954;2022-08-23T05:17:11;11.48;;;4.82;;
67930;SDS011;54726;52.000;5.954;2022-08-23T05:18:12;12.13;;;4.82;;
67930;SDS011;54726;52.000;5.954;2022-08-23T05:19:12;10.98;;;5.65;;
67930;SDS011;54726;52.000;5.954;2022-08-23T05:20:12;11.50;;;5.10;;
67930;SDS011;54726;52.000;5.954;2022-08-23T05:21:14;9.88;;;5.00;;
67930;SDS011;54726;52.000;5.954;2022-08-23T05:22:15;12.07;;;5.45;;
67930;SDS011;54726;52.000;5.954;2022-08-23T05:23:16;8.20;;;4.68;;
67930;SDS011;54726;52.000;5.954;2022-08-23T05:24:16;16.00;;;4.72;;
67930;SDS011;54726;52.000;5.954;2022-08-23T05:25:16;10.00;;;5.30;;
67930;SDS011;54726;52.000;5.954;2022-08-23T05:26:17;11.75;;;4.78;;
67930;SDS011;54726;52.000;5.954;2022-08-23T05:27:19;8.77;;;5.43;;
67930;SDS011;54726;52.000;5.954;2022-08-23T05:28:20;10.40;;;5.32;;
67930;SDS011;54726;52.000;5.954;2022-08-23T05:29:22;9.02;;;4.97;;
67930;SDS011;54726;52.000;5.954;2022-08-23T05:30:22;15.55;;;5.25;;
67930;SDS011;54726;52.000;5.954;2022-08-23T05:31:25;11.27;;;5.15;;
67930;SDS011;54726;52.000;5.954;2022-08-23T05:32:26;10.15;;;5.13;;
67930;SDS011;54726;52.000;5.954;2022-08-23T05:33:27;9.45;;;4.38;;
67930;SDS011;54726;52.000;5.954;2022-08-23T05:34:29;7.55;;;4.80;;
67930;SDS011;54726;52.000;5.954;2022-08-23T05:35:29;9.05;;;4.93;;
67930;SDS011;54726;52.000;5.954;2022-08-23T05:36:30;9.77;;;4.90;;
67930;SDS011;54726;52.000;5.954;2022-08-23T05:37:30;9.07;;;5.40;;
67930;SDS011;54726;52.000;5.954;2022-08-23T05:38:31;9.48;;;5.18;;
67930;SDS011;54726;52.000;5.954;2022-08-23T05:39:31;11.02;;;5.22;;
67930;SDS011;54726;52.000;5.954;2022-08-23T05:40:32;11.00;;;5.95;;
67930;SDS011;54726;52.000;5.954;2022-08-23T05:41:32;9.63;;;4.88;;
67930;SDS011;54726;52.000;5.954;2022-08-23T05:42:34;9.05;;;5.03;;
67930;SDS011;54726;52.000;5.954;2022-08-23T05:43:35;9.00;;;5.15;;
67930;SDS011;54726;52.000;5.954;2022-08-23T05:44:36;11.63;;;5.25;;
67930;SDS011;54726;52.000;5.954;2022-08-23T05:45:36;8.35;;;4.80;;
67930;SDS011;54726;52.000;5.954;2022-08-23T05:46:37;10.25;;;5.43;;
67930;SDS011;54726;52.000;5.954;2022-08-23T05:47:38;10.48;;;5.22;;
67930;SDS011;54726;52.000;5.954;2022-08-23T05:48:39;10.15;;;5.47;;
67930;SDS011;54726;52.000;5.954;2022-08-23T05:49:40;13.30;;;5.70;;
67930;SDS011;54726;52.000;5.954;2022-08-23T05:50:40;7.82;;;4.88;;
67930;SDS011;54726;52.000;5.954;2022-08-23T05:51:41;12.48;;;5.95;;
67930;SDS011;54726;52.000;5.954;2022-08-23T05:52:41;8.48;;;4.50;;
67930;SDS011;54726;52.000;5.954;2022-08-23T05:53:42;8.52;;;5.88;;
67930;SDS011;54726;52.000;5.954;2022-08-23T05:54:44;13.18;;;5.40;;
67930;SDS011;54726;52.000;5.954;2022-08-23T05:55:44;9.35;;;5.38;;
67930;SDS011;54726;52.000;5.954;2022-08-23T05:56:45;10.27;;;5.50;;
67930;SDS011;54726;52.000;5.954;2022-08-23T05:57:46;8.80;;;5.03;;
67930;SDS011;54726;52.000;5.954;2022-08-23T05:58:47;7.72;;;5.00;;
67930;SDS011;54726;52.000;5.954;2022-08-23T05:59:50;10.45;;;5.15;;
67930;SDS011;54726;52.000;5.954;2022-08-23T06:00:50;15.65;;;5.43;;
67930;SDS011;54726;52.000;5.954;2022-08-23T06:01:50;9.63;;;5.45;;
67930;SDS011;54726;52.000;5.954;2022-08-23T06:02:51;9.73;;;5.90;;
67930;SDS011;54726;52.000;5.954;2022-08-23T06:03:51;10.18;;;5.38;;
67930;SDS011;54726;52.000;5.954;2022-08-23T06:04:52;9.15;;;5.45;;
67930;SDS011;54726;52.000;5.954;2022-08-23T06:05:55;11.07;;;6.05;;
67930;SDS011;54726;52.000;5.954;2022-08-23T06:06:56;11.05;;;5.40;;
67930;SDS011;54726;52.000;5.954;2022-08-23T06:07:57;14.43;;;5.53;;
67930;SDS011;54726;52.000;5.954;2022-08-23T06:08:58;6.68;;;5.00;;